Time;durP1;ratioP1;P1;durP2;ratioP2;P2;SDS_P1;SDS_P2;PMS_P1;PMS_P2;Temp;Humidity;BMP_temperature;BMP_pressure;BME280_temperature;BME280_humidity;BME280_pressure;Samples;Min_cycle;Max_cycle;Signal;HPM_P1;HPM_P2
2024/03/23 00:01:59;;;;;;;;;;;;;;;;;;4970947;28;19969;-78
2024/03/23 00:04:25;;;;;;;;;;;;;;;;;;4967572;28;19930;-78
2024/03/23 00:06:52;;;;;;;;;;;;;;;;;;4971534;28;19926;-77
2024/03/23 00:09:18;;;;;;;;;;;;;;;;;;4971615;28;19930;-78
2024/03/23 00:11:45;;;;;;;;;;;;;;;;;;4970782;28;19934;-77
2024/03/23 00:14:11;;;;;;;;;;;;;;;;;;4971527;28;20270;-77
2024/03/23 00:16:38;;;;;;;;;;;;;;;;;;4971278;28;20021;-79
2024/03/23 00:19:04;;;;;;;;;;;;;;;;;;4968232;28;20572;-79
2024/03/23 00:21:31;;;;;;;;;;;;;;;;;;4971529;28;20049;-78
2024/03/23 00:23:57;;;;;;;;;;;;;;;;;;4988579;28;19983;-79
2024/03/23 00:26:25;;;;;;;;;;;;;;;;;;4969816;28;19938;-77
2024/03/23 00:28:51;;;;;;;;;;;;;;;;;;4971585;28;20449;-79
2024/03/23 00:31:19;;;;;;;;;;;;;;;;;;4968139;28;19973;-78
2024/03/23 00:33:45;;;;;;;;;;;;;;;;;;4955221;28;20004;-78
2024/03/23 00:36:12;;;;;;;;;;;;;;;;;;4964270;28;19930;-77
2024/03/23 00:38:38;;;;;;;;;;;;;;;;;;4970498;28;19979;-77
2024/03/23 00:41:05;;;;;;;;;;;;;;;;;;4965660;28;19938;-77
2024/03/23 00:43:32;;;;;;;;;;;;;;;;;;4958580;28;20003;-78
2024/03/23 00:45:59;;;;;;;;;;;;;;;;;;4964873;28;19930;-77
2024/03/23 00:48:25;;;;;;;;;;;;;;;;;;4960515;28;19985;-79
2024/03/23 00:50:52;;;;;;;;;;;;;;;;;;4956181;28;20488;-77
2024/03/23 00:53:18;;;;;;;;;;;;;;;;;;4969549;28;20381;-77
2024/03/23 00:55:45;;;;;;;;;;;;;;;;;;4978053;28;20412;-77
2024/03/23 00:58:11;;;;;;;;;;;;;;;;;;4971026;28;19980;-78
2024/03/23 01:00:38;;;;;;;;;;;;;;;;;;4970319;28;19926;-78
2024/03/23 01:03:04;;;;;;;;;;;;;;;;;;4970756;28;19987;-79
2024/03/23 01:05:31;;;;;;;;;;;;;;;;;;5028097;28;20007;-79
2024/03/23 01:07:57;;;;;;;;;;;;;;;;;;4961401;28;19931;-79
2024/03/23 01:10:24;;;;;;;;;;;;;;;;;;4967584;28;19926;-79
2024/03/23 01:12:50;;;;;;;;;;;;;;;;;;4962208;28;20381;-79
2024/03/23 01:15:17;;;;;;;;;;;;;;;;;;4959370;28;19953;-79
2024/03/23 01:17:43;;;;;;;;;;;;;;;;;;4962525;28;19969;-79
2024/03/23 01:20:10;;;;;;;;;;;;;;;;;;4970258;28;19978;-78
2024/03/23 01:22:36;;;;;;;;;;;;;;;;;;4970328;28;19930;-80
2024/03/23 01:25:03;;;;;;;;;;;;;;;;;;4970892;28;20032;-78
2024/03/23 01:27:29;;;;;;;;;;;;;;;;;;4962925;28;19934;-79
2024/03/23 01:29:56;;;;;;;;;;;;;;;;;;4969148;28;19930;-79
2024/03/23 01:32:22;;;;;;;;;;;;;;;;;;4961793;28;19937;-78
2024/03/23 01:34:49;;;;;;;;;;;;;;;;;;4957615;28;20027;-79
2024/03/23 01:37:15;;;;;;;;;;;;;;;;;;4968044;28;20404;-79
2024/03/23 01:39:42;;;;;;;;;;;;;;;;;;4967072;28;20305;-79
2024/03/23 01:42:08;;;;;;;;;;;;;;;;;;4969528;28;20344;-80
2024/03/23 01:44:35;;;;;;;;;;;;;;;;;;4966315;28;20451;-80
2024/03/23 01:47:01;;;;;;;;;;;;;;;;;;4977044;28;19930;-82
2024/03/23 01:49:28;;;;;;;;;;;;;;;;;;5024907;28;19930;-80
2024/03/23 01:51:54;;;;;;;;;;;;;;;;;;4959851;28;19980;-79
2024/03/23 01:54:21;;;;;;;;;;;;;;;;;;4957672;28;19999;-79
2024/03/23 01:56:47;;;;;;;;;;;;;;;;;;4963673;28;19934;-77
2024/03/23 01:59:14;;;;;;;;;;;;;;;;;;4968395;28;19934;-77
2024/03/23 02:01:41;;;;;;;;;;;;;;;;;;4957135;28;20447;-76
2024/03/23 02:04:09;;;;;;;;;;;;;;;;;;4968771;28;19941;-76
2024/03/23 02:06:35;;;;;;;;;;;;;;;;;;4967947;28;20003;-77
2024/03/23 02:09:03;;;;;;;;;;;;;;;;;;4958844;28;19937;-76
2024/03/23 02:11:29;;;;;;;;;;;;;;;;;;4968701;28;19930;-77
2024/03/23 02:13:56;;;;;;;;;;;;;;;;;;4962101;28;19937;-76
2024/03/23 02:16:22;;;;;;;;;;;;;;;;;;4969946;28;19933;-77
2024/03/23 02:18:49;;;;;;;;;;;;;;;;;;4957501;28;19930;-77
2024/03/23 02:21:15;;;;;;;;;;;;;;;;;;4961702;28;20445;-77
2024/03/23 02:23:42;;;;;;;;;;;;;;;;;;5007345;28;20432;-78
2024/03/23 02:26:08;;;;;;;;;;;;;;;;;;4966537;28;19972;-77
2024/03/23 02:28:36;;;;;;;;;;;;;;;;;;4962772;28;19986;-77
2024/03/23 02:31:04;;;;;;;;;;;;;;;;;;4960011;28;19930;-77
2024/03/23 02:33:30;;;;;;;;;;;;;;;;;;4969765;28;19934;-78
2024/03/23 02:35:57;;;;;;;;;;;;;;;;;;4981661;28;20388;-75
2024/03/23 02:38:23;;;;;;;;;;;;;;;;;;4967695;28;20415;-76
2024/03/23 02:40:50;;;;;;;;;;;;;;;;;;4970912;28;19930;-76
2024/03/23 02:43:16;;;;;;;;;;;;;;;;;;4974184;28;19949;-76
2024/03/23 02:45:43;;;;;;;;;;;;;;;;;;4968324;28;19926;-78
2024/03/23 02:48:09;;;;;;;;;;;;;;;;;;4972637;28;19934;-77
2024/03/23 02:50:36;;;;;;;;;;;;;;;;;;4969167;28;19926;-77
2024/03/23 02:53:02;;;;;;;;;;;;;;;;;;4968092;28;19933;-78
2024/03/23 02:55:29;;;;;;;;;;;;;;;;;;4972472;28;19930;-77
2024/03/23 02:57:55;;;;;;;;;;;;;;;;;;4968292;28;19991;-77
2024/03/23 03:00:22;;;;;;;;;;;;;;;;;;4967678;28;19930;-78
2024/03/23 03:02:48;;;;;;;;;;;;;;;;;;4986289;28;19926;-78
2024/03/23 03:05:15;;;;;;;;;;;;;;;;;;5002122;28;20207;-77
2024/03/23 03:07:42;;;;;;;;;;;;;;;;;;4961899;28;19976;-77
2024/03/23 03:10:10;;;;;;;;;;;;;;;;;;4971549;28;19931;-77
2024/03/23 03:12:37;;;;;;;;;;;;;;;;;;4968537;28;20581;-77
2024/03/23 03:15:04;;;;;;;;;;;;;;;;;;4961866;28;19934;-77
2024/03/23 03:17:30;;;;;;;;;;;;;;;;;;4967388;28;19930;-76
2024/03/23 03:19:57;;;;;;;;;;;;;;;;;;4966956;28;19937;-77
2024/03/23 03:22:23;;;;;;;;;;;;;;;;;;4972446;28;20405;-76
2024/03/23 03:24:50;;;;;;;;;;;;;;;;;;4969320;28;19973;-76
2024/03/23 03:27:16;;;;;;;;;;;;;;;;;;4966647;28;19938;-76
2024/03/23 03:29:44;;;;;;;;;;;;;;;;;;4958953;28;19926;-76
2024/03/23 03:32:10;;;;;;;;;;;;;;;;;;4969708;28;19930;-77
2024/03/23 03:34:37;;;;;;;;;;;;;;;;;;4971580;28;19930;-77
2024/03/23 03:37:03;;;;;;;;;;;;;;;;;;4961784;28;19987;-76
2024/03/23 03:39:30;;;;;;;;;;;;;;;;;;4961117;28;19975;-75
2024/03/23 03:41:56;;;;;;;;;;;;;;;;;;4962688;28;19992;-76
2024/03/23 03:44:23;;;;;;;;;;;;;;;;;;4967475;28;19930;-76
2024/03/23 03:46:49;;;;;;;;;;;;;;;;;;4971383;28;19926;-76
2024/03/23 03:49:16;;;;;;;;;;;;;;;;;;4968644;28;19934;-76
2024/03/23 03:51:42;;;;;;;;;;;;;;;;;;4971291;28;19969;-76
2024/03/23 03:54:09;;;;;;;;;;;;;;;;;;4972454;28;19976;-76
2024/03/23 03:56:35;;;;;;;;;;;;;;;;;;4969970;28;19974;-76
2024/03/23 03:59:02;;;;;;;;;;;;;;;;;;4960944;28;20472;-76
2024/03/23 04:01:28;;;;;;;;;;;;;;;;;;4970242;28;19984;-76
2024/03/23 04:03:55;;;;;;;;;;;;;;;;;;4967262;28;20448;-76
2024/03/23 04:06:21;;;;;;;;;;;;;;;;;;4977054;28;19950;-76
2024/03/23 04:08:48;;;;;;;;;;;;;;;;;;4971205;28;20021;-76
2024/03/23 04:11:14;;;;;;;;;;;;;;;;;;4965213;28;20293;-77
2024/03/23 04:13:42;;;;;;;;;;;;;;;;;;4966882;28;19930;-76
2024/03/23 04:16:09;;;;;;;;;;;;;;;;;;4969777;28;20013;-75
2024/03/23 04:18:36;;;;;;;;;;;;;;;;;;4968390;28;20419;-76
2024/03/23 04:21:02;;;;;;;;;;;;;;;;;;4971686;28;19977;-77
2024/03/23 04:23:29;;;;;;;;;;;;;;;;;;4969750;28;19983;-77
2024/03/23 04:25:55;;;;;;;;;;;;;;;;;;4968376;28;20703;-75
2024/03/23 04:28:22;;;;;;;;;;;;;;;;;;4972711;28;19934;-75
2024/03/23 04:30:49;;;;;;;;;;;;;;;;;;4963855;28;19960;-74
2024/03/23 04:33:16;;;;;;;;;;;;;;;;;;4957635;28;20394;-75
2024/03/23 04:35:42;;;;;;;;;;;;;;;;;;4970014;28;19976;-75
2024/03/23 04:38:09;;;;;;;;;;;;;;;;;;4967347;28;19930;-76
2024/03/23 04:40:36;;;;;;;;;;;;;;;;;;4964509;28;19935;-75
2024/03/23 04:43:04;;;;;;;;;;;;;;;;;;4966983;28;20405;-75
2024/03/23 04:45:31;;;;;;;;;;;;;;;;;;4965320;28;19934;-75
2024/03/23 04:47:57;;;;;;;;;;;;;;;;;;4965622;28;20041;-75
2024/03/23 04:50:24;;;;;;;;;;;;;;;;;;4981768;28;19956;-75
2024/03/23 04:52:51;;;;;;;;;;;;;;;;;;4977189;28;19930;-75
2024/03/23 04:55:18;;;;;;;;;;;;;;;;;;4971883;28;20464;-75
2024/03/23 04:57:44;;;;;;;;;;;;;;;;;;4970736;28;19930;-75
2024/03/23 05:00:16;;;;;;;;;;;;;;;;;;5005610;28;20441;-75
2024/03/23 05:02:42;;;;;;;;;;;;;;;;;;4968407;28;19934;-77
2024/03/23 05:05:09;;;;;;;;;;;;;;;;;;4962989;28;19981;-76
2024/03/23 05:07:35;;;;;;;;;;;;;;;;;;4961784;28;20450;-75
2024/03/23 05:10:03;;;;;;;;;;;;;;;;;;4969689;28;19984;-76
2024/03/23 05:12:29;;;;;;;;;;;;;;;;;;5017252;28;20035;-76
2024/03/23 05:14:56;;;;;;;;;;;;;;;;;;4978685;28;19930;-75
2024/03/23 05:17:22;;;;;;;;;;;;;;;;;;4966570;28;19969;-75
2024/03/23 05:19:49;;;;;;;;;;;;;;;;;;4970303;28;19934;-76
2024/03/23 05:22:15;;;;;;;;;;;;;;;;;;4968847;28;19940;-75
2024/03/23 05:24:42;;;;;;;;;;;;;;;;;;4963506;28;19930;-76
2024/03/23 05:27:08;;;;;;;;;;;;;;;;;;4971160;28;19953;-77
2024/03/23 05:29:35;;;;;;;;;;;;;;;;;;4965298;28;19930;-80
2024/03/23 05:32:01;;;;;;;;;;;;;;;;;;4966933;28;19984;-76
2024/03/23 05:34:29;;;;;;;;;;;;;;;;;;4970738;28;19937;-76
2024/03/23 05:36:55;;;;;;;;;;;;;;;;;;4970138;28;19930;-77
2024/03/23 05:39:23;;;;;;;;;;;;;;;;;;4973150;28;19977;-77
2024/03/23 05:41:49;;;;;;;;;;;;;;;;;;4961481;28;19938;-77
2024/03/23 05:44:16;;;;;;;;;;;;;;;;;;4963647;28;19941;-77
2024/03/23 05:46:48;;;;;;;;;;;;;;;;;;4959079;28;19930;-76
2024/03/23 05:49:15;;;;;;;;;;;;;;;;;;4973862;28;19934;-77
2024/03/23 05:51:41;;;;;;;;;;;;;;;;;;5028438;28;19970;-76
2024/03/23 05:54:08;;;;;;;;;;;;;;;;;;4987817;28;19930;-76
2024/03/23 05:56:34;;;;;;;;;;;;;;;;;;4967956;28;20344;-79
2024/03/23 05:59:01;;;;;;;;;;;;;;;;;;4958042;28;20301;-78
2024/03/23 06:01:30;;;;;;;;;;;;;;;;;;4970803;28;20284;-77
2024/03/23 06:03:57;;;;;;;;;;;;;;;;;;4963159;28;20556;-77
2024/03/23 06:06:23;;;;;;;;;;;;;;;;;;4953252;28;19965;-77
2024/03/23 06:08:50;;;;;;;;;;;;;;;;;;4957287;28;19937;-77
2024/03/23 06:11:16;;;;;;;;;;;;;;;;;;4965510;28;19930;-77
2024/03/23 06:13:43;;;;;;;;;;;;;;;;;;4965250;28;19930;-78
2024/03/23 06:16:10;;;;;;;;;;;;;;;;;;4966030;28;19930;-78
2024/03/23 06:18:37;;;;;;;;;;;;;;;;;;4969222;28;19934;-77
2024/03/23 06:21:03;;;;;;;;;;;;;;;;;;4971045;28;19926;-77
2024/03/23 06:23:30;;;;;;;;;;;;;;;;;;4970304;28;19934;-78
2024/03/23 06:25:56;;;;;;;;;;;;;;;;;;4971109;28;20363;-78
2024/03/23 06:28:23;;;;;;;;;;;;;;;;;;4969340;28;19939;-77
2024/03/23 06:30:49;;;;;;;;;;;;;;;;;;4971037;28;20280;-77
2024/03/23 06:33:16;;;;;;;;;;;;;;;;;;4969924;28;19960;-77
2024/03/23 06:35:42;;;;;;;;;;;;;;;;;;4979827;28;19994;-76
2024/03/23 06:38:09;;;;;;;;;;;;;;;;;;4987779;28;19934;-78
2024/03/23 06:40:35;;;;;;;;;;;;;;;;;;4970047;28;19930;-78
2024/03/23 06:43:02;;;;;;;;;;;;;;;;;;4963121;28;19926;-78
2024/03/23 06:45:28;;;;;;;;;;;;;;;;;;4970626;28;19930;-78
2024/03/23 06:47:57;;;;;;;;;;;;;;;;;;4971049;28;19984;-79
2024/03/23 06:50:23;;;;;;;;;;;;;;;;;;4967971;28;20024;-80
2024/03/23 06:52:50;;;;;;;;;;;;;;;;;;4978656;28;19932;-79
2024/03/23 06:55:16;;;;;;;;;;;;;;;;;;4970661;28;19991;-79
2024/03/23 06:57:43;;;;;;;;;;;;;;;;;;4969025;28;19938;-79
2024/03/23 07:00:09;;;;;;;;;;;;;;;;;;4969304;28;19934;-78
2024/03/23 07:02:37;;;;;;;;;;;;;;;;;;4970565;28;19934;-78
2024/03/23 07:05:03;;;;;;;;;;;;;;;;;;4975238;28;19941;-78
2024/03/23 07:07:30;;;;;;;;;;;;;;;;;;4961237;28;19931;-79
2024/03/23 07:09:56;;;;;;;;;;;;;;;;;;4970355;28;19941;-79
2024/03/23 07:12:23;;;;;;;;;;;;;;;;;;4969905;28;19930;-77
2024/03/23 07:14:49;;;;;;;;;;;;;;;;;;4969554;28;19930;-79
2024/03/23 07:17:18;;;;;;;;;;;;;;;;;;4969438;28;19930;-78
2024/03/23 07:19:44;;;;;;;;;;;;;;;;;;4957712;28;19931;-78
2024/03/23 07:22:11;;;;;;;;;;;;;;;;;;4965707;28;19930;-77
2024/03/23 07:24:39;;;;;;;;;;;;;;;;;;4954450;28;19930;-78
2024/03/23 07:27:09;;;;;;;;;;;;;;;;;;4962454;28;19930;-78
2024/03/23 07:29:35;;;;;;;;;;;;;;;;;;4952383;28;19930;-78
2024/03/23 07:32:02;;;;;;;;;;;;;;;;;;4967867;28;20351;-78
2024/03/23 07:34:28;;;;;;;;;;;;;;;;;;4972898;28;19980;-79
2024/03/23 07:36:56;;;;;;;;;;;;;;;;;;4973122;28;19934;-78
2024/03/23 07:39:22;;;;;;;;;;;;;;;;;;4971863;28;19980;-79
2024/03/23 07:41:49;;;;;;;;;;;;;;;;;;4963914;28;19934;-79
2024/03/23 07:44:15;;;;;;;;;;;;;;;;;;4963689;28;20664;-83
2024/03/23 07:46:42;;;;;;;;;;;;;;;;;;4971973;28;20442;-81
2024/03/23 07:49:08;;;;;;;;;;;;;;;;;;4970601;28;19930;-80
2024/03/23 07:51:35;;;;;;;;;;;;;;;;;;4969425;28;19935;-80
2024/03/23 07:54:01;;;;;;;;;;;;;;;;;;4957866;28;20393;-81
2024/03/23 07:56:28;;;;;;;;;;;;;;;;;;4968336;28;19930;-80
2024/03/23 07:58:54;;;;;;;;;;;;;;;;;;5003700;28;19980;-75
2024/03/23 08:01:21;;;;;;;;;;;;;;;;;;5008599;28;19941;-74
2024/03/23 08:03:47;;;;;;;;;;;;;;;;;;4964907;28;19977;-76
2024/03/23 08:06:14;;;;;;;;;;;;;;;;;;4972345;28;19935;-75
2024/03/23 08:08:40;;;;;;;;;;;;;;;;;;4962688;28;19977;-76
2024/03/23 08:11:07;;;;;;;;;;;;;;;;;;4956583;28;19930;-75
2024/03/23 08:13:33;;;;;;;;;;;;;;;;;;4967134;28;19937;-75
2024/03/23 08:16:00;;;;;;;;;;;;;;;;;;4973897;28;19930;-76
2024/03/23 08:18:26;;;;;;;;;;;;;;;;;;4951791;28;20382;-73
2024/03/23 08:20:53;;;;;;;;;;;;;;;;;;4952612;28;20930;-73
2024/03/23 08:23:19;;;;;;;;;;;;;;;;;;4964859;28;19983;-73
2024/03/23 08:25:46;;;;;;;;;;;;;;;;;;4955047;28;19938;-73
2024/03/23 08:28:12;;;;;;;;;;;;;;;;;;4961448;28;20043;-73
2024/03/23 08:30:40;;;;;;;;;;;;;;;;;;4959117;28;20477;-76
2024/03/23 08:33:06;;;;;;;;;;;;;;;;;;4959880;28;20349;-75
2024/03/23 08:35:34;;;;;;;;;;;;;;;;;;4961592;28;20718;-75
2024/03/23 08:38:00;;;;;;;;;;;;;;;;;;4958701;28;20371;-76
2024/03/23 08:40:27;;;;;;;;;;;;;;;;;;4959288;28;20627;-76
2024/03/23 08:42:53;;;;;;;;;;;;;;;;;;4958233;28;19927;-75
2024/03/23 08:45:21;;;;;;;;;;;;;;;;;;4968456;28;20305;-76
2024/03/23 08:47:47;;;;;;;;;;;;;;;;;;4957121;28;20325;-75
2024/03/23 08:50:14;;;;;;;;;;;;;;;;;;4956663;28;20006;-75
2024/03/23 08:52:40;;;;;;;;;;;;;;;;;;4955136;28;20370;-76
2024/03/23 08:55:07;;;;;;;;;;;;;;;;;;4960241;28;20402;-75
2024/03/23 08:57:33;;;;;;;;;;;;;;;;;;4956664;28;20512;-75
2024/03/23 09:00:00;;;;;;;;;;;;;;;;;;4958005;28;20678;-75
2024/03/23 09:02:27;;;;;;;;;;;;;;;;;;4960552;28;20024;-75
2024/03/23 09:04:54;;;;;;;;;;;;;;;;;;4957746;28;20316;-74
2024/03/23 09:07:20;;;;;;;;;;;;;;;;;;4956159;28;19931;-75
2024/03/23 09:09:47;;;;;;;;;;;;;;;;;;4960144;28;20124;-75
2024/03/23 09:12:13;;;;;;;;;;;;;;;;;;4961665;28;19991;-74
2024/03/23 09:14:40;;;;;;;;;;;;;;;;;;4962898;28;19930;-75
2024/03/23 09:17:06;;;;;;;;;;;;;;;;;;4959828;28;20461;-75
2024/03/23 09:19:33;;;;;;;;;;;;;;;;;;4959400;28;19956;-74
2024/03/23 09:21:59;;;;;;;;;;;;;;;;;;4956125;28;19930;-74
2024/03/23 09:24:26;;;;;;;;;;;;;;;;;;4963153;28;20412;-73
2024/03/23 09:26:52;;;;;;;;;;;;;;;;;;4962913;28;20415;-75
2024/03/23 09:29:20;;;;;;;;;;;;;;;;;;4959175;28;19979;-73
2024/03/23 09:31:46;;;;;;;;;;;;;;;;;;4958635;28;19938;-75
2024/03/23 09:34:13;;;;;;;;;;;;;;;;;;4957965;28;19942;-75
2024/03/23 09:36:39;;;;;;;;;;;;;;;;;;4957447;28;20397;-76
2024/03/23 09:39:06;;;;;;;;;;;;;;;;;;4956557;28;19960;-75
2024/03/23 09:41:33;;;;;;;;;;;;;;;;;;4959339;28;19942;-75
2024/03/23 09:44:01;;;;;;;;;;;;;;;;;;4963395;28;19937;-74
2024/03/23 09:46:28;;;;;;;;;;;;;;;;;;4966822;28;19934;-74
2024/03/23 09:48:55;;;;;;;;;;;;;;;;;;4966981;28;20036;-74
2024/03/23 09:51:21;;;;;;;;;;;;;;;;;;4966788;28;20361;-75
2024/03/23 09:53:48;;;;;;;;;;;;;;;;;;4985060;28;19928;-74
2024/03/23 09:56:15;;;;;;;;;;;;;;;;;;4974459;28;19930;-74
2024/03/23 09:58:42;;;;;;;;;;;;;;;;;;4967034;28;20049;-73
2024/03/23 10:01:08;;;;;;;;;;;;;;;;;;4967082;28;20028;-74
2024/03/23 10:03:35;;;;;;;;;;;;;;;;;;4982471;28;20028;-75
2024/03/23 10:06:01;;;;;;;;;;;;;;;;;;5005583;28;20015;-76
2024/03/23 10:08:28;;;;;;;;;;;;;;;;;;4975779;28;20306;-75
2024/03/23 10:10:54;;;;;;;;;;;;;;;;;;4967995;28;20431;-74
2024/03/23 10:13:21;;;;;;;;;;;;;;;;;;4964258;28;20355;-74
2024/03/23 10:15:47;;;;;;;;;;;;;;;;;;5016852;28;19974;-74
2024/03/23 10:18:14;;;;;;;;;;;;;;;;;;4966728;28;19938;-74
2024/03/23 10:20:40;;;;;;;;;;;;;;;;;;5026333;28;20412;-74
2024/03/23 10:23:07;;;;;;;;;;;;;;;;;;4976713;28;19945;-74
2024/03/23 10:25:33;;;;;;;;;;;;;;;;;;4950929;28;19974;-75
2024/03/23 10:28:01;;;;;;;;;;;;;;;;;;4960124;28;20016;-74
2024/03/23 10:30:27;;;;;;;;;;;;;;;;;;4956659;28;19930;-74
2024/03/23 10:32:54;;;;;;;;;;;;;;;;;;4961874;28;20294;-74
2024/03/23 10:35:22;;;;;;;;;;;;;;;;;;4957708;28;19930;-74
2024/03/23 10:37:49;;;;;;;;;;;;;;;;;;4961534;28;19962;-72
2024/03/23 10:40:15;;;;;;;;;;;;;;;;;;4964543;28;19930;-74
2024/03/23 10:42:42;;;;;;;;;;;;;;;;;;4952473;28;19930;-75
2024/03/23 10:45:09;;;;;;;;;;;;;;;;;;4968606;28;20017;-74
2024/03/23 10:47:35;;;;;;;;;;;;;;;;;;4965477;28;19936;-74
2024/03/23 10:50:02;;;;;;;;;;;;;;;;;;4970593;28;19956;-75
2024/03/23 10:52:28;;;;;;;;;;;;;;;;;;4979535;28;19976;-73
2024/03/23 10:54:55;;;;;;;;;;;;;;;;;;4971314;28;20323;-73
2024/03/23 10:57:21;;;;;;;;;;;;;;;;;;4972197;28;19930;-75
2024/03/23 10:59:48;;;;;;;;;;;;;;;;;;4972177;28;19983;-73
2024/03/23 11:02:15;;;;;;;;;;;;;;;;;;4972313;28;19973;-74
2024/03/23 11:04:43;;;;;;;;;;;;;;;;;;5003408;28;19932;-73
2024/03/23 11:07:09;;;;;;;;;;;;;;;;;;4970586;28;19934;-73
2024/03/23 11:09:36;;;;;;;;;;;;;;;;;;4977519;28;20042;-74
2024/03/23 11:12:02;;;;;;;;;;;;;;;;;;4968043;28;19931;-74
2024/03/23 11:14:29;;;;;;;;;;;;;;;;;;4980180;28;19937;-74
2024/03/23 11:16:55;;;;;;;;;;;;;;;;;;4973837;28;19930;-74
2024/03/23 11:19:22;;;;;;;;;;;;;;;;;;4979238;28;19930;-73
2024/03/23 11:21:48;;;;;;;;;;;;;;;;;;4967920;28;19970;-74
2024/03/23 11:24:15;;;;;;;;;;;;;;;;;;4970713;28;20319;-74
2024/03/23 11:26:41;;;;;;;;;;;;;;;;;;4956232;28;20024;-74
2024/03/23 11:29:08;;;;;;;;;;;;;;;;;;4977025;28;20036;-74
2024/03/23 11:31:34;;;;;;;;;;;;;;;;;;4966466;28;19969;-75
2024/03/23 11:34:01;;;;;;;;;;;;;;;;;;4971188;28;20461;-75
2024/03/23 11:36:27;;;;;;;;;;;;;;;;;;4975167;28;20035;-77
2024/03/23 11:38:54;;;;;;;;;;;;;;;;;;4971511;28;20401;-73
2024/03/23 11:41:20;;;;;;;;;;;;;;;;;;4965057;28;19929;-70
2024/03/23 11:43:47;;;;;;;;;;;;;;;;;;4982930;28;19929;-74
2024/03/23 11:46:13;;;;;;;;;;;;;;;;;;4980586;28;20015;-74
2024/03/23 11:48:40;;;;;;;;;;;;;;;;;;4985606;28;19930;-74
2024/03/23 11:51:06;;;;;;;;;;;;;;;;;;5011071;28;19964;-74
2024/03/23 11:53:34;;;;;;;;;;;;;;;;;;4996389;28;20380;-74
2024/03/23 11:56:00;;;;;;;;;;;;;;;;;;4980683;28;19941;-73
2024/03/23 11:58:27;;;;;;;;;;;;;;;;;;4976649;28;19941;-74
2024/03/23 12:00:53;;;;;;;;;;;;;;;;;;4982643;28;19930;-73
2024/03/23 12:03:22;;;;;;;;;;;;;;;;;;5038371;28;20442;-73
2024/03/23 12:05:48;;;;;;;;;;;;;;;;;;4998302;28;19967;-74
2024/03/23 12:08:15;;;;;;;;;;;;;;;;;;4966847;28;19930;-74
2024/03/23 12:10:42;;;;;;;;;;;;;;;;;;4993671;28;20378;-73
2024/03/23 12:13:08;;;;;;;;;;;;;;;;;;4978258;28;19936;-73
2024/03/23 12:15:37;;;;;;;;;;;;;;;;;;4979615;28;20009;-73
2024/03/23 12:18:03;;;;;;;;;;;;;;;;;;4967272;28;19970;-74
2024/03/23 12:20:30;;;;;;;;;;;;;;;;;;4982675;28;19929;-73
2024/03/23 12:22:56;;;;;;;;;;;;;;;;;;4969181;28;19966;-73
2024/03/23 12:25:23;;;;;;;;;;;;;;;;;;4990350;28;19934;-73
2024/03/23 12:27:49;;;;;;;;;;;;;;;;;;4968452;28;19985;-73
2024/03/23 12:30:17;;;;;;;;;;;;;;;;;;4982625;28;19930;-74
2024/03/23 12:32:43;;;;;;;;;;;;;;;;;;4975116;28;19937;-72
2024/03/23 12:35:10;;;;;;;;;;;;;;;;;;4986739;28;20389;-74
2024/03/23 12:37:36;;;;;;;;;;;;;;;;;;4963972;28;20381;-73
2024/03/23 12:40:04;;;;;;;;;;;;;;;;;;4975004;28;20418;-73
2024/03/23 12:42:30;;;;;;;;;;;;;;;;;;4964052;28;19980;-73
2024/03/23 12:44:57;;;;;;;;;;;;;;;;;;4971817;28;19930;-73
2024/03/23 12:47:23;;;;;;;;;;;;;;;;;;4970626;28;19930;-73
2024/03/23 12:49:52;;;;;;;;;;;;;;;;;;4969654;28;19930;-73
2024/03/23 12:52:19;;;;;;;;;;;;;;;;;;4965249;28;19935;-73
2024/03/23 12:54:46;;;;;;;;;;;;;;;;;;4969982;28;20035;-73
2024/03/23 12:57:12;;;;;;;;;;;;;;;;;;4969917;28;20417;-73
2024/03/23 12:59:39;;;;;;;;;;;;;;;;;;4973445;28;19959;-73
2024/03/23 13:02:07;;;;;;;;;;;;;;;;;;5007522;28;20007;-74
2024/03/23 13:04:34;;;;;;;;;;;;;;;;;;4961804;28;19937;-74
2024/03/23 13:07:00;;;;;;;;;;;;;;;;;;4972772;28;19996;-73
2024/03/23 13:09:27;;;;;;;;;;;;;;;;;;4965371;28;19991;-73
2024/03/23 13:11:53;;;;;;;;;;;;;;;;;;4965926;28;19937;-73
2024/03/23 13:14:21;;;;;;;;;;;;;;;;;;4957381;28;19930;-73
2024/03/23 13:16:47;;;;;;;;;;;;;;;;;;4971496;28;19929;-73
2024/03/23 13:19:14;;;;;;;;;;;;;;;;;;4974343;28;19938;-73
2024/03/23 13:21:40;;;;;;;;;;;;;;;;;;4990732;28;19969;-73
2024/03/23 13:24:07;;;;;;;;;;;;;;;;;;4966709;28;19934;-73
2024/03/23 13:26:34;;;;;;;;;;;;;;;;;;4964735;28;20045;-73
2024/03/23 13:29:01;;;;;;;;;;;;;;;;;;4970094;28;19992;-72
2024/03/23 13:31:27;;;;;;;;;;;;;;;;;;4992751;28;19930;-72
2024/03/23 13:33:54;;;;;;;;;;;;;;;;;;4970718;28;19930;-73
2024/03/23 13:36:20;;;;;;;;;;;;;;;;;;4973801;28;19930;-74
2024/03/23 13:38:47;;;;;;;;;;;;;;;;;;4968870;28;19936;-73
2024/03/23 13:41:13;;;;;;;;;;;;;;;;;;4989010;28;19934;-73
2024/03/23 13:43:41;;;;;;;;;;;;;;;;;;5026427;28;19947;-72
2024/03/23 13:46:07;;;;;;;;;;;;;;;;;;5000741;28;19953;-73
2024/03/23 13:48:34;;;;;;;;;;;;;;;;;;4992372;28;20019;-73
2024/03/23 13:51:00;;;;;;;;;;;;;;;;;;4983590;28;19929;-74
2024/03/23 13:53:27;;;;;;;;;;;;;;;;;;4965013;28;19930;-73
2024/03/23 13:55:53;;;;;;;;;;;;;;;;;;4983724;28;20021;-73
2024/03/23 13:58:20;;;;;;;;;;;;;;;;;;4972883;28;19999;-73
2024/03/23 14:00:46;;;;;;;;;;;;;;;;;;4995941;28;19973;-73
2024/03/23 14:03:13;;;;;;;;;;;;;;;;;;5044564;28;20018;-73
2024/03/23 14:05:39;;;;;;;;;;;;;;;;;;5000939;28;19930;-73
2024/03/23 14:08:06;;;;;;;;;;;;;;;;;;5036373;28;19928;-74
2024/03/23 14:10:32;;;;;;;;;;;;;;;;;;4974214;28;19997;-74
2024/03/23 14:13:00;;;;;;;;;;;;;;;;;;5003414;28;20359;-74
2024/03/23 14:15:26;;;;;;;;;;;;;;;;;;5035905;28;20028;-75
2024/03/23 14:17:54;;;;;;;;;;;;;;;;;;5034076;28;19928;-74
2024/03/23 14:20:20;;;;;;;;;;;;;;;;;;5006533;28;19930;-74
2024/03/23 14:22:47;;;;;;;;;;;;;;;;;;5054491;28;19974;-74
2024/03/23 14:25:13;;;;;;;;;;;;;;;;;;4965161;28;19930;-75
2024/03/23 14:27:40;;;;;;;;;;;;;;;;;;4969624;28;19983;-77
2024/03/23 14:30:06;;;;;;;;;;;;;;;;;;4970443;28;19977;-73
2024/03/23 14:32:34;;;;;;;;;;;;;;;;;;4968334;28;20354;-73
2024/03/23 14:35:00;;;;;;;;;;;;;;;;;;4958091;28;19944;-74
2024/03/23 14:37:28;;;;;;;;;;;;;;;;;;4956102;28;20281;-73
2024/03/23 14:39:54;;;;;;;;;;;;;;;;;;4958125;28;19942;-73
2024/03/23 14:42:21;;;;;;;;;;;;;;;;;;4960691;28;19933;-72
2024/03/23 14:44:47;;;;;;;;;;;;;;;;;;4962617;28;19930;-73
2024/03/23 14:47:15;;;;;;;;;;;;;;;;;;4965479;28;19930;-74
2024/03/23 14:49:41;;;;;;;;;;;;;;;;;;4972717;28;19930;-74
2024/03/23 14:52:08;;;;;;;;;;;;;;;;;;4967067;28;20291;-74
2024/03/23 14:54:35;;;;;;;;;;;;;;;;;;4970982;28;19937;-74
2024/03/23 14:57:03;;;;;;;;;;;;;;;;;;4967332;28;20020;-74
2024/03/23 14:59:30;;;;;;;;;;;;;;;;;;4967233;28;19930;-74
2024/03/23 15:01:58;;;;;;;;;;;;;;;;;;4969117;28;19937;-76
2024/03/23 15:04:24;;;;;;;;;;;;;;;;;;4972079;28;19930;-73
2024/03/23 15:06:51;;;;;;;;;;;;;;;;;;4972798;28;20319;-74
2024/03/23 15:09:18;;;;;;;;;;;;;;;;;;4969729;28;19941;-74
2024/03/23 15:11:45;;;;;;;;;;;;;;;;;;4964755;28;20480;-74
2024/03/23 15:14:11;;;;;;;;;;;;;;;;;;4962706;28;19931;-75
2024/03/23 15:16:38;;;;;;;;;;;;;;;;;;4984227;28;20339;-74
2024/03/23 15:19:06;;;;;;;;;;;;;;;;;;4969795;28;19929;-74
2024/03/23 15:21:33;;;;;;;;;;;;;;;;;;5028479;28;19936;-74
2024/03/23 15:23:59;;;;;;;;;;;;;;;;;;5034369;28;20048;-74
2024/03/23 15:26:26;;;;;;;;;;;;;;;;;;4980196;28;20370;-74
2024/03/23 15:29:09;;;;;;;;;;;;;;;;;;5006402;28;20658;-75
2024/03/23 15:31:37;;;;;;;;;;;;;;;;;;5033244;28;19930;-74
2024/03/23 15:34:04;;;;;;;;;;;;;;;;;;4990026;28;20006;-74
2024/03/23 15:36:31;;;;;;;;;;;;;;;;;;4974529;28;19983;-72
2024/03/23 15:38:57;;;;;;;;;;;;;;;;;;4987929;28;19937;-72
2024/03/23 15:41:24;;;;;;;;;;;;;;;;;;4972708;28;19930;-74
2024/03/23 15:43:50;;;;;;;;;;;;;;;;;;4980267;28;19984;-73
2024/03/23 15:46:18;;;;;;;;;;;;;;;;;;5050233;28;19976;-74
2024/03/23 15:48:46;;;;;;;;;;;;;;;;;;4990055;28;19988;-74
2024/03/23 15:51:13;;;;;;;;;;;;;;;;;;4984592;28;19936;-74
2024/03/23 15:53:39;;;;;;;;;;;;;;;;;;4964495;28;19974;-74
2024/03/23 15:56:06;;;;;;;;;;;;;;;;;;4955667;28;20471;-74
2024/03/23 15:58:32;;;;;;;;;;;;;;;;;;4960864;28;19930;-73
2024/03/23 16:00:59;;;;;;;;;;;;;;;;;;4963855;28;19930;-72
2024/03/23 16:03:26;;;;;;;;;;;;;;;;;;4958922;28;19977;-73
2024/03/23 16:05:53;;;;;;;;;;;;;;;;;;4959773;28;19934;-73
2024/03/23 16:08:19;;;;;;;;;;;;;;;;;;4958816;28;20562;-75
2024/03/23 16:10:46;;;;;;;;;;;;;;;;;;4957459;28;19930;-73
2024/03/23 16:13:12;;;;;;;;;;;;;;;;;;4959231;28;19931;-73
2024/03/23 16:15:39;;;;;;;;;;;;;;;;;;4960293;28;19939;-74
2024/03/23 16:18:05;;;;;;;;;;;;;;;;;;4954387;28;20463;-75
2024/03/23 16:20:33;;;;;;;;;;;;;;;;;;4961485;28;20313;-74
2024/03/23 16:22:59;;;;;;;;;;;;;;;;;;4958211;28;19934;-74
2024/03/23 16:25:26;;;;;;;;;;;;;;;;;;4959132;28;19930;-74
2024/03/23 16:27:52;;;;;;;;;;;;;;;;;;4961333;28;19938;-74
2024/03/23 16:30:20;;;;;;;;;;;;;;;;;;4960735;28;19938;-74
2024/03/23 16:32:46;;;;;;;;;;;;;;;;;;4960253;28;20561;-74
2024/03/23 16:35:13;;;;;;;;;;;;;;;;;;4960418;28;19976;-73
2024/03/23 16:37:39;;;;;;;;;;;;;;;;;;4962425;28;19934;-73
2024/03/23 16:40:08;;;;;;;;;;;;;;;;;;4964601;28;20500;-72
2024/03/23 16:42:34;;;;;;;;;;;;;;;;;;4988781;28;19930;-75